sensor_id;sensor_type;location;lat;lon;timestamp;pressure;altitude;pressure_sealevel;temperature;humidity
45621;BME280;31345;51.522;10.702;2023-07-02T00:00:34;98134.94;;;16.13;100.00
45621;BME280;31345;51.522;10.702;2023-07-02T00:03:09;98132.97;;;16.15;100.00
45621;BME280;31345;51.522;10.702;2023-07-02T00:05:37;98135.44;;;16.17;100.00
45621;BME280;31345;51.522;10.702;2023-07-02T00:08:06;98140.22;;;16.21;100.00
45621;BME280;31345;51.522;10.702;2023-07-02T00:10:33;98142.38;;;16.26;100.00
45621;BME280;31345;51.522;10.702;2023-07-02T00:13:01;98144.00;;;16.19;100.00
45621;BME280;31345;51.522;10.702;2023-07-02T00:15:34;98145.97;;;16.08;100.00
45621;BME280;31345;51.522;10.702;2023-07-02T00:18:07;98134.75;;;16.06;100.00
45621;BME280;31345;51.522;10.702;2023-07-02T00:20:39;98136.91;;;16.11;100.00
45621;BME280;31345;51.522;10.702;2023-07-02T00:23:12;98138.88;;;16.09;100.00
45621;BME280;31345;51.522;10.702;2023-07-02T00:25:45;98144.34;;;16.16;100.00
45621;BME280;31345;51.522;10.702;2023-07-02T00:28:18;98137.56;;;16.13;100.00
45621;BME280;31345;51.522;10.702;2023-07-02T00:30:52;98142.53;;;16.16;100.00
45621;BME280;31345;51.522;10.702;2023-07-02T00:33:24;98130.31;;;16.15;100.00
45621;BME280;31345;51.522;10.702;2023-07-02T00:35:52;98126.69;;;16.16;100.00
45621;BME280;31345;51.522;10.702;2023-07-02T00:38:19;98136.88;;;16.03;100.00
45621;BME280;31345;51.522;10.702;2023-07-02T00:40:54;98132.78;;;16.08;100.00
45621;BME280;31345;51.522;10.702;2023-07-02T00:43:27;98132.41;;;16.03;100.00
45621;BME280;31345;51.522;10.702;2023-07-02T00:46:01;98127.50;;;16.08;100.00
45621;BME280;31345;51.522;10.702;2023-07-02T00:48:29;98129.00;;;16.11;100.00
45621;BME280;31345;51.522;10.702;2023-07-02T00:50:57;98126.53;;;16.10;100.00
45621;BME280;31345;51.522;10.702;2023-07-02T00:53:29;98126.84;;;16.15;100.00
45621;BME280;31345;51.522;10.702;2023-07-02T00:55:58;98118.94;;;16.15;100.00
45621;BME280;31345;51.522;10.702;2023-07-02T00:58:26;98121.94;;;16.20;100.00
45621;BME280;31345;51.522;10.702;2023-07-02T01:00:54;98128.34;;;16.17;100.00
45621;BME280;31345;51.522;10.702;2023-07-02T01:03:24;98139.03;;;16.07;100.00
45621;BME280;31345;51.522;10.702;2023-07-02T01:05:56;98134.09;;;16.04;100.00
45621;BME280;31345;51.522;10.702;2023-07-02T01:08:30;98141.00;;;15.97;100.00
45621;BME280;31345;51.522;10.702;2023-07-02T01:11:03;98127.13;;;15.95;100.00
45621;BME280;31345;51.522;10.702;2023-07-02T01:13:36;98118.25;;;15.96;100.00
45621;BME280;31345;51.522;10.702;2023-07-02T01:16:05;98122.38;;;15.99;100.00
45621;BME280;31345;51.522;10.702;2023-07-02T01:18:33;98118.91;;;15.98;100.00
45621;BME280;31345;51.522;10.702;2023-07-02T01:21:06;98123.16;;;15.91;100.00
45621;BME280;31345;51.522;10.702;2023-07-02T01:23:39;98122.19;;;15.92;100.00
45621;BME280;31345;51.522;10.702;2023-07-02T01:26:11;98127.63;;;15.90;100.00
45621;BME280;31345;51.522;10.702;2023-07-02T01:28:39;98128.94;;;15.86;100.00
45621;BME280;31345;51.522;10.702;2023-07-02T01:31:12;98122.81;;;15.86;100.00
45621;BME280;31345;51.522;10.702;2023-07-02T01:33:44;98118.00;;;15.81;100.00
45621;BME280;31345;51.522;10.702;2023-07-02T01:36:17;98117.53;;;15.77;100.00
45621;BME280;31345;51.522;10.702;2023-07-02T01:38:44;98122.25;;;15.74;100.00
45621;BME280;31345;51.522;10.702;2023-07-02T01:41:17;98114.00;;;15.68;100.00
45621;BME280;31345;51.522;10.702;2023-07-02T01:43:49;98113.16;;;15.60;100.00
45621;BME280;31345;51.522;10.702;2023-07-02T01:46:22;98121.59;;;15.63;100.00
45621;BME280;31345;51.522;10.702;2023-07-02T01:48:50;98130.97;;;15.66;100.00
45621;BME280;31345;51.522;10.702;2023-07-02T01:51:23;98121.59;;;15.63;100.00
45621;BME280;31345;51.522;10.702;2023-07-02T01:53:56;98122.41;;;15.64;100.00
45621;BME280;31345;51.522;10.702;2023-07-02T01:56:28;98121.44;;;15.65;100.00
45621;BME280;31345;51.522;10.702;2023-07-02T01:58:56;98122.75;;;15.69;100.00
45621;BME280;31345;51.522;10.702;2023-07-02T02:01:28;98133.31;;;15.69;100.00
45621;BME280;31345;51.522;10.702;2023-07-02T02:03:56;98132.81;;;15.74;100.00
45621;BME280;31345;51.522;10.702;2023-07-02T02:06:30;98133.00;;;15.72;100.00
45621;BME280;31345;51.522;10.702;2023-07-02T02:09:03;98137.44;;;15.72;100.00
45621;BME280;31345;51.522;10.702;2023-07-02T02:11:38;98141.50;;;15.66;100.00
45621;BME280;31345;51.522;10.702;2023-07-02T02:14:11;98142.50;;;15.65;100.00
45621;BME280;31345;51.522;10.702;2023-07-02T02:16:44;98138.22;;;15.64;100.00
45621;BME280;31345;51.522;10.702;2023-07-02T02:19:17;98141.00;;;15.62;100.00
45621;BME280;31345;51.522;10.702;2023-07-02T02:21:51;98145.28;;;15.63;100.00
45621;BME280;31345;51.522;10.702;2023-07-02T02:24:24;98147.41;;;15.60;100.00
45621;BME280;31345;51.522;10.702;2023-07-02T02:26:51;98148.19;;;15.52;100.00
45621;BME280;31345;51.522;10.702;2023-07-02T02:29:23;98151.31;;;15.55;100.00
45621;BME280;31345;51.522;10.702;2023-07-02T02:31:56;98158.13;;;15.58;100.00
45621;BME280;31345;51.522;10.702;2023-07-02T02:34:29;98152.66;;;15.60;100.00
45621;BME280;31345;51.522;10.702;2023-07-02T02:37:03;98159.31;;;15.64;100.00
45621;BME280;31345;51.522;10.702;2023-07-02T02:39:36;98161.25;;;15.62;100.00
45621;BME280;31345;51.522;10.702;2023-07-02T02:42:10;98159.31;;;15.64;100.00
45621;BME280;31345;51.522;10.702;2023-07-02T02:44:42;98159.47;;;15.62;100.00
45621;BME280;31345;51.522;10.702;2023-07-02T02:47:15;98155.97;;;15.62;100.00
45621;BME280;31345;51.522;10.702;2023-07-02T02:49:47;98155.69;;;15.65;100.00
45621;BME280;31345;51.522;10.702;2023-07-02T02:52:21;98154.50;;;15.59;100.00
45621;BME280;31345;51.522;10.702;2023-07-02T02:54:54;98157.16;;;15.67;100.00
45621;BME280;31345;51.522;10.702;2023-07-02T02:57:21;98163.94;;;15.70;100.00
45621;BME280;31345;51.522;10.702;2023-07-02T02:59:53;98164.38;;;15.65;100.00
45621;BME280;31345;51.522;10.702;2023-07-02T03:02:26;98170.84;;;15.71;100.00
45621;BME280;31345;51.522;10.702;2023-07-02T03:04:54;98165.56;;;15.71;100.00
45621;BME280;31345;51.522;10.702;2023-07-02T03:07:29;98163.47;;;15.75;100.00
45621;BME280;31345;51.522;10.702;2023-07-02T03:10:02;98165.09;;;15.76;100.00
45621;BME280;31345;51.522;10.702;2023-07-02T03:12:30;98164.13;;;15.77;100.00
45621;BME280;31345;51.522;10.702;2023-07-02T03:15:03;98170.19;;;15.69;100.00
45621;BME280;31345;51.522;10.702;2023-07-02T03:17:31;98164.22;;;15.67;100.00
45621;BME280;31345;51.522;10.702;2023-07-02T03:19:59;98168.53;;;15.68;100.00
45621;BME280;31345;51.522;10.702;2023-07-02T03:22:32;98168.34;;;15.69;100.00
45621;BME280;31345;51.522;10.702;2023-07-02T03:25:05;98165.06;;;15.67;100.00
45621;BME280;31345;51.522;10.702;2023-07-02T03:27:38;98166.06;;;15.66;100.00
45621;BME280;31345;51.522;10.702;2023-07-02T03:30:11;98169.00;;;15.63;100.00
45621;BME280;31345;51.522;10.702;2023-07-02T03:32:43;98172.28;;;15.65;100.00
45621;BME280;31345;51.522;10.702;2023-07-02T03:35:16;98167.25;;;15.72;100.00
45621;BME280;31345;51.522;10.702;2023-07-02T03:37:50;98175.16;;;15.72;100.00
45621;BME280;31345;51.522;10.702;2023-07-02T03:40:22;98169.19;;;15.70;100.00
45621;BME280;31345;51.522;10.702;2023-07-02T03:42:55;98171.94;;;15.60;100.00
45621;BME280;31345;51.522;10.702;2023-07-02T03:45:27;98171.44;;;15.56;100.00
45621;BME280;31345;51.522;10.702;2023-07-02T03:48:00;98180.16;;;15.57;100.00
45621;BME280;31345;51.522;10.702;2023-07-02T03:50:32;98179.34;;;15.56;100.00
45621;BME280;31345;51.522;10.702;2023-07-02T03:53:06;98178.50;;;15.56;100.00
45621;BME280;31345;51.522;10.702;2023-07-02T03:55:39;98183.78;;;15.56;100.00
45621;BME280;31345;51.522;10.702;2023-07-02T03:58:07;98182.44;;;15.52;100.00
45621;BME280;31345;51.522;10.702;2023-07-02T04:00:39;98191.28;;;15.42;100.00
45621;BME280;31345;51.522;10.702;2023-07-02T04:03:13;98192.94;;;15.43;100.00
45621;BME280;31345;51.522;10.702;2023-07-02T04:05:45;98195.56;;;15.43;100.00
45621;BME280;31345;51.522;10.702;2023-07-02T04:08:19;98191.72;;;15.38;100.00
45621;BME280;31345;51.522;10.702;2023-07-02T04:10:53;98201.28;;;15.39;100.00
45621;BME280;31345;51.522;10.702;2023-07-02T04:13:20;98196.69;;;15.41;100.00
45621;BME280;31345;51.522;10.702;2023-07-02T04:15:48;98204.31;;;15.44;100.00
45621;BME280;31345;51.522;10.702;2023-07-02T04:18:20;98207.75;;;15.45;100.00
45621;BME280;31345;51.522;10.702;2023-07-02T04:20:53;98209.63;;;15.52;100.00
45621;BME280;31345;51.522;10.702;2023-07-02T04:23:22;98212.59;;;15.58;100.00
45621;BME280;31345;51.522;10.702;2023-07-02T04:25:49;98216.13;;;15.66;100.00
45621;BME280;31345;51.522;10.702;2023-07-02T04:28:17;98207.88;;;15.69;100.00
45621;BME280;31345;51.522;10.702;2023-07-02T04:30:50;98208.22;;;15.66;100.00
45621;BME280;31345;51.522;10.702;2023-07-02T04:33:24;98207.59;;;15.73;100.00
45621;BME280;31345;51.522;10.702;2023-07-02T04:35:56;98208.47;;;15.81;100.00
45621;BME280;31345;51.522;10.702;2023-07-02T04:38:25;98204.72;;;15.92;100.00
45621;BME280;31345;51.522;10.702;2023-07-02T04:40:58;98197.72;;;16.10;100.00
45621;BME280;31345;51.522;10.702;2023-07-02T04:43:36;98203.41;;;16.31;100.00
45621;BME280;31345;51.522;10.702;2023-07-02T04:46:03;98210.13;;;16.77;100.00
45621;BME280;31345;51.522;10.702;2023-07-02T04:48:38;98215.75;;;17.16;100.00
45621;BME280;31345;51.522;10.702;2023-07-02T04:51:10;98216.88;;;17.30;100.00
45621;BME280;31345;51.522;10.702;2023-07-02T04:53:39;98212.78;;;17.19;100.00
45621;BME280;31345;51.522;10.702;2023-07-02T04:56:12;98218.53;;;17.06;100.00
45621;BME280;31345;51.522;10.702;2023-07-02T04:58:44;98217.22;;;17.02;100.00
45621;BME280;31345;51.522;10.702;2023-07-02T05:01:17;98216.09;;;16.96;100.00
45621;BME280;31345;51.522;10.702;2023-07-02T05:03:44;98229.94;;;16.90;100.00
45621;BME280;31345;51.522;10.702;2023-07-02T05:06:12;98226.47;;;17.06;100.00
45621;BME280;31345;51.522;10.702;2023-07-02T05:08:45;98227.81;;;17.27;100.00
45621;BME280;31345;51.522;10.702;2023-07-02T05:11:18;98232.25;;;17.51;100.00
45621;BME280;31345;51.522;10.702;2023-07-02T05:13:47;98232.25;;;17.51;100.00
45621;BME280;31345;51.522;10.702;2023-07-02T05:16:14;98230.78;;;17.32;100.00
45621;BME280;31345;51.522;10.702;2023-07-02T05:18:42;98232.94;;;17.28;100.00
45621;BME280;31345;51.522;10.702;2023-07-02T05:21:17;98230.28;;;17.28;100.00
45621;BME280;31345;51.522;10.702;2023-07-02T05:23:51;98220.53;;;17.45;100.00
45621;BME280;31345;51.522;10.702;2023-07-02T05:26:24;98227.63;;;17.70;100.00
45621;BME280;31345;51.522;10.702;2023-07-02T05:28:52;98226.97;;;17.59;100.00
45621;BME280;31345;51.522;10.702;2023-07-02T05:31:19;98228.28;;;17.80;100.00
45621;BME280;31345;51.522;10.702;2023-07-02T05:33:52;98235.38;;;18.20;100.00
45621;BME280;31345;51.522;10.702;2023-07-02T05:36:25;98227.03;;;18.39;100.00
45621;BME280;31345;51.522;10.702;2023-07-02T05:38:59;98220.41;;;18.44;100.00
45621;BME280;31345;51.522;10.702;2023-07-02T05:41:26;98216.41;;;18.56;100.00
45621;BME280;31345;51.522;10.702;2023-07-02T05:44:01;98220.53;;;18.50;100.00
45621;BME280;31345;51.522;10.702;2023-07-02T05:46:29;98218.22;;;18.56;100.00
45621;BME280;31345;51.522;10.702;2023-07-02T05:49:02;98224.81;;;18.60;100.00
45621;BME280;31345;51.522;10.702;2023-07-02T05:51:34;98217.69;;;18.52;100.00
45621;BME280;31345;51.522;10.702;2023-07-02T05:54:08;98237.06;;;18.52;100.00
45621;BME280;31345;51.522;10.702;2023-07-02T05:56:36;98222.06;;;18.45;100.00
45621;BME280;31345;51.522;10.702;2023-07-02T05:59:03;98238.16;;;18.35;100.00
45621;BME280;31345;51.522;10.702;2023-07-02T06:01:31;98232.81;;;18.43;100.00
45621;BME280;31345;51.522;10.702;2023-07-02T06:04:03;98236.16;;;18.37;100.00
45621;BME280;31345;51.522;10.702;2023-07-02T06:06:36;98240.63;;;18.36;100.00
45621;BME280;31345;51.522;10.702;2023-07-02T06:09:04;98243.41;;;18.43;100.00
45621;BME280;31345;51.522;10.702;2023-07-02T06:11:37;98245.50;;;18.48;100.00
45621;BME280;31345;51.522;10.702;2023-07-02T06:14:10;98248.47;;;18.61;100.00
45621;BME280;31345;51.522;10.702;2023-07-02T06:16:42;98245.34;;;18.58;100.00
45621;BME280;31345;51.522;10.702;2023-07-02T06:19:10;98248.88;;;18.42;100.00
45621;BME280;31345;51.522;10.702;2023-07-02T06:21:43;98250.44;;;18.19;100.00
45621;BME280;31345;51.522;10.702;2023-07-02T06:24:16;98241.28;;;17.98;100.00
45621;BME280;31345;51.522;10.702;2023-07-02T06:26:50;98248.88;;;17.85;100.00
45621;BME280;31345;51.522;10.702;2023-07-02T06:29:23;98248.44;;;17.73;100.00
45621;BME280;31345;51.522;10.702;2023-07-02T06:31:51;98251.56;;;17.68;100.00
45621;BME280;31345;51.522;10.702;2023-07-02T06:34:23;98258.03;;;17.57;100.00
45621;BME280;31345;51.522;10.702;2023-07-02T06:36:51;98257.53;;;17.54;100.00
45621;BME280;31345;51.522;10.702;2023-07-02T06:39:24;98269.25;;;17.43;100.00
45621;BME280;31345;51.522;10.702;2023-07-02T06:41:58;98266.31;;;17.46;100.00
45621;BME280;31345;51.522;10.702;2023-07-02T06:44:34;98262.31;;;17.42;100.00
45621;BME280;31345;51.522;10.702;2023-07-02T06:47:03;98270.41;;;17.40;100.00
45621;BME280;31345;51.522;10.702;2023-07-02T06:49:31;98276.31;;;17.34;100.00
45621;BME280;31345;51.522;10.702;2023-07-02T06:51:58;98273.38;;;17.29;100.00
45621;BME280;31345;51.522;10.702;2023-07-02T06:54:26;98281.97;;;17.31;100.00
45621;BME280;31345;51.522;10.702;2023-07-02T06:57:00;98286.56;;;17.29;100.00
45621;BME280;31345;51.522;10.702;2023-07-02T06:59:28;98276.16;;;17.27;100.00
45621;BME280;31345;51.522;10.702;2023-07-02T07:02:01;98281.44;;;17.27;100.00
45621;BME280;31345;51.522;10.702;2023-07-02T07:04:29;98280.28;;;17.30;100.00
45621;BME280;31345;51.522;10.702;2023-07-02T07:06:57;98281.13;;;17.30;100.00
45621;BME280;31345;51.522;10.702;2023-07-02T07:09:24;98286.56;;;17.37;100.00
45621;BME280;31345;51.522;10.702;2023-07-02T07:11:57;98285.59;;;17.38;100.00
45621;BME280;31345;51.522;10.702;2023-07-02T07:14:26;98292.69;;;17.38;100.00
45621;BME280;31345;51.522;10.702;2023-07-02T07:16:59;98304.44;;;17.35;100.00
45621;BME280;31345;51.522;10.702;2023-07-02T07:19:31;98290.22;;;17.36;100.00
45621;BME280;31345;51.522;10.702;2023-07-02T07:22:04;98297.81;;;17.39;100.00
45621;BME280;31345;51.522;10.702;2023-07-02T07:24:36;98294.84;;;17.42;100.00
45621;BME280;31345;51.522;10.702;2023-07-02T07:27:05;98298.00;;;17.46;100.00
45621;BME280;31345;51.522;10.702;2023-07-02T07:29:33;98291.41;;;17.58;100.00
45621;BME280;31345;51.522;10.702;2023-07-02T07:32:07;98292.22;;;17.67;100.00
45621;BME280;31345;51.522;10.702;2023-07-02T07:34:40;98293.03;;;17.76;99.22
45621;BME280;31345;51.522;10.702;2023-07-02T07:37:13;98295.69;;;17.76;98.68
45621;BME280;31345;51.522;10.702;2023-07-02T07:39:45;98292.19;;;17.84;99.05
45621;BME280;31345;51.522;10.702;2023-07-02T07:42:14;98294.81;;;18.00;97.62
45621;BME280;31345;51.522;10.702;2023-07-02T07:44:45;98296.06;;;18.21;98.53
45621;BME280;31345;51.522;10.702;2023-07-02T07:47:18;98298.66;;;18.38;94.07
45621;BME280;31345;51.522;10.702;2023-07-02T07:49:46;98282.91;;;18.53;93.36
45621;BME280;31345;51.522;10.702;2023-07-02T07:52:14;98290.75;;;18.78;92.48
45621;BME280;31345;51.522;10.702;2023-07-02T07:54:47;98283.66;;;19.02;90.32
45621;BME280;31345;51.522;10.702;2023-07-02T07:57:19;98286.66;;;19.22;94.69
45621;BME280;31345;51.522;10.702;2023-07-02T07:59:53;98291.03;;;19.53;90.09
45621;BME280;31345;51.522;10.702;2023-07-02T08:02:21;98282.44;;;19.51;87.93
45621;BME280;31345;51.522;10.702;2023-07-02T08:04:54;98277.88;;;19.68;89.72
45621;BME280;31345;51.522;10.702;2023-07-02T08:07:22;98286.00;;;19.67;87.87
45621;BME280;31345;51.522;10.702;2023-07-02T08:09:49;98298.25;;;19.83;89.24
45621;BME280;31345;51.522;10.702;2023-07-02T08:12:17;98292.97;;;19.98;87.72
45621;BME280;31345;51.522;10.702;2023-07-02T08:14:49;98290.19;;;19.76;83.46
45621;BME280;31345;51.522;10.702;2023-07-02T08:17:23;98289.53;;;19.59;84.96
45621;BME280;31345;51.522;10.702;2023-07-02T08:19:56;98295.72;;;19.51;86.63
45621;BME280;31345;51.522;10.702;2023-07-02T08:22:23;98289.44;;;19.67;85.23
45621;BME280;31345;51.522;10.702;2023-07-02T08:24:56;98289.75;;;19.73;83.46
45621;BME280;31345;51.522;10.702;2023-07-02T08:27:23;98288.41;;;19.30;82.58
45621;BME280;31345;51.522;10.702;2023-07-02T08:29:56;98300.38;;;19.02;83.72
45621;BME280;31345;51.522;10.702;2023-07-02T08:32:25;98314.44;;;18.71;85.03
45621;BME280;31345;51.522;10.702;2023-07-02T08:34:53;98305.31;;;18.74;88.29
45621;BME280;31345;51.522;10.702;2023-07-02T08:37:26;98318.75;;;18.96;90.25
45621;BME280;31345;51.522;10.702;2023-07-02T08:39:54;98315.38;;;19.10;90.38
45621;BME280;31345;51.522;10.702;2023-07-02T08:42:21;98326.94;;;19.17;93.37
45621;BME280;31345;51.522;10.702;2023-07-02T08:44:53;98328.34;;;19.05;92.41
45621;BME280;31345;51.522;10.702;2023-07-02T08:47:21;98318.84;;;19.34;91.62
45621;BME280;31345;51.522;10.702;2023-07-02T08:49:55;98322.72;;;19.70;85.76
45621;BME280;31345;51.522;10.702;2023-07-02T08:52:23;98313.94;;;19.46;83.40
45621;BME280;31345;51.522;10.702;2023-07-02T08:54:55;98331.94;;;19.12;82.94
45621;BME280;31345;51.522;10.702;2023-07-02T08:57:23;98325.91;;;18.95;81.01
45621;BME280;31345;51.522;10.702;2023-07-02T08:59:50;98323.56;;;19.00;79.31
45621;BME280;31345;51.522;10.702;2023-07-02T09:02:32;98330.72;;;18.91;78.23
45621;BME280;31345;51.522;10.702;2023-07-02T09:05:07;98335.25;;;18.83;77.44
45621;BME280;31345;51.522;10.702;2023-07-02T09:07:43;98335.78;;;19.33;78.55
45621;BME280;31345;51.522;10.702;2023-07-02T09:10:27;98341.81;;;19.42;75.03
45621;BME280;31345;51.522;10.702;2023-07-02T09:13:07;98340.91;;;19.03;73.90
45621;BME280;31345;51.522;10.702;2023-07-02T09:15:36;98338.88;;;18.82;77.99
45621;BME280;31345;51.522;10.702;2023-07-02T09:18:14;98346.81;;;18.82;79.36
45621;BME280;31345;51.522;10.702;2023-07-02T09:20:43;98346.78;;;18.90;77.63
45621;BME280;31345;51.522;10.702;2023-07-02T09:23:11;98338.19;;;18.88;76.93
45621;BME280;31345;51.522;10.702;2023-07-02T09:25:40;98337.94;;;19.29;77.72
45621;BME280;31345;51.522;10.702;2023-07-02T09:28:15;98337.94;;;19.76;75.20
45621;BME280;31345;51.522;10.702;2023-07-02T09:30:52;98336.25;;;19.60;74.73
45621;BME280;31345;51.522;10.702;2023-07-02T09:33:20;98339.13;;;19.50;72.83
45621;BME280;31345;51.522;10.702;2023-07-02T09:35:54;98356.50;;;19.53;75.59
45621;BME280;31345;51.522;10.702;2023-07-02T09:38:27;98347.50;;;19.62;69.88
45621;BME280;31345;51.522;10.702;2023-07-02T09:41:00;98344.13;;;19.45;73.13
45621;BME280;31345;51.522;10.702;2023-07-02T09:43:32;98355.06;;;19.42;70.34
45621;BME280;31345;51.522;10.702;2023-07-02T09:46:06;98351.50;;;19.35;74.25
45621;BME280;31345;51.522;10.702;2023-07-02T09:48:35;98350.00;;;19.79;73.91
45621;BME280;31345;51.522;10.702;2023-07-02T09:51:09;98347.13;;;20.04;73.31
45621;BME280;31345;51.522;10.702;2023-07-02T09:53:36;98345.13;;;20.36;70.52
45621;BME280;31345;51.522;10.702;2023-07-02T09:56:04;98357.22;;;20.54;69.34
45621;BME280;31345;51.522;10.702;2023-07-02T09:58:36;98350.91;;;20.55;69.66
45621;BME280;31345;51.522;10.702;2023-07-02T10:01:09;98346.34;;;20.33;70.90
45621;BME280;31345;51.522;10.702;2023-07-02T10:03:41;98363.13;;;19.96;71.19
45621;BME280;31345;51.522;10.702;2023-07-02T10:06:11;98356.03;;;20.11;69.14
45621;BME280;31345;51.522;10.702;2023-07-02T10:08:38;98365.63;;;20.12;70.35
45621;BME280;31345;51.522;10.702;2023-07-02T10:11:08;98357.72;;;20.73;68.49
45621;BME280;31345;51.522;10.702;2023-07-02T10:13:36;98361.69;;;20.99;69.76
45621;BME280;31345;51.522;10.702;2023-07-02T10:16:05;98363.44;;;20.91;67.20
45621;BME280;31345;51.522;10.702;2023-07-02T10:18:32;98363.09;;;20.79;63.94
45621;BME280;31345;51.522;10.702;2023-07-02T10:21:16;98366.34;;;20.60;67.84
45621;BME280;31345;51.522;10.702;2023-07-02T10:23:44;98361.38;;;21.08;68.52
45621;BME280;31345;51.522;10.702;2023-07-02T10:26:14;98362.59;;;21.06;68.43
45621;BME280;31345;51.522;10.702;2023-07-02T10:28:42;98356.97;;;20.49;66.51
45621;BME280;31345;51.522;10.702;2023-07-02T10:31:19;98360.69;;;20.09;67.46
45621;BME280;31345;51.522;10.702;2023-07-02T10:33:52;98370.03;;;19.81;67.32
45621;BME280;31345;51.522;10.702;2023-07-02T10:36:26;98372.38;;;19.61;69.48
45621;BME280;31345;51.522;10.702;2023-07-02T10:39:01;98367.34;;;19.43;69.87
45621;BME280;31345;51.522;10.702;2023-07-02T10:41:31;98365.44;;;19.28;68.99
45621;BME280;31345;51.522;10.702;2023-07-02T10:44:06;98360.53;;;19.17;67.94
45621;BME280;31345;51.522;10.702;2023-07-02T10:46:45;98365.72;;;19.34;69.66
45621;BME280;31345;51.522;10.702;2023-07-02T10:49:18;98357.69;;;19.50;68.15
45621;BME280;31345;51.522;10.702;2023-07-02T10:51:57;98368.81;;;19.69;67.13
45621;BME280;31345;51.522;10.702;2023-07-02T10:54:41;98366.09;;;20.16;68.86
45621;BME280;31345;51.522;10.702;2023-07-02T10:57:14;98356.63;;;19.98;64.72
45621;BME280;31345;51.522;10.702;2023-07-02T10:59:47;98370.56;;;20.00;66.14
45621;BME280;31345;51.522;10.702;2023-07-02T11:02:20;98358.97;;;20.16;66.17
45621;BME280;31345;51.522;10.702;2023-07-02T11:04:47;98367.25;;;19.98;64.74
45621;BME280;31345;51.522;10.702;2023-07-02T11:07:22;98367.31;;;19.90;66.15
45621;BME280;31345;51.522;10.702;2023-07-02T11:09:50;98360.78;;;20.01;62.85
45621;BME280;31345;51.522;10.702;2023-07-02T11:12:18;98355.88;;;20.43;67.84
45621;BME280;31345;51.522;10.702;2023-07-02T11:14:50;98364.75;;;20.80;61.44
45621;BME280;31345;51.522;10.702;2023-07-02T11:17:24;98362.72;;;20.98;62.64
45621;BME280;31345;51.522;10.702;2023-07-02T11:19:52;98355.34;;;21.37;60.61
45621;BME280;31345;51.522;10.702;2023-07-02T11:22:31;98361.44;;;21.52;61.04
45621;BME280;31345;51.522;10.702;2023-07-02T11:25:11;98373.16;;;20.99;60.39
45621;BME280;31345;51.522;10.702;2023-07-02T11:27:38;98379.88;;;20.65;65.66
45621;BME280;31345;51.522;10.702;2023-07-02T11:30:12;98384.25;;;20.42;64.12
45621;BME280;31345;51.522;10.702;2023-07-02T11:32:49;98382.88;;;20.62;69.12
45621;BME280;31345;51.522;10.702;2023-07-02T11:35:17;98377.31;;;20.56;65.46
45621;BME280;31345;51.522;10.702;2023-07-02T11:37:46;98372.56;;;20.67;63.71
45621;BME280;31345;51.522;10.702;2023-07-02T11:40:20;98373.94;;;20.63;64.75
45621;BME280;31345;51.522;10.702;2023-07-02T11:42:52;98379.84;;;20.80;65.37
45621;BME280;31345;51.522;10.702;2023-07-02T11:45:24;98367.41;;;20.80;63.54
45621;BME280;31345;51.522;10.702;2023-07-02T11:47:52;98374.25;;;20.90;61.59
45621;BME280;31345;51.522;10.702;2023-07-02T11:50:25;98380.34;;;20.68;60.29
45621;BME280;31345;51.522;10.702;2023-07-02T11:52:58;98377.75;;;20.45;63.13
45621;BME280;31345;51.522;10.702;2023-07-02T11:55:26;98373.34;;;21.19;65.21
45621;BME280;31345;51.522;10.702;2023-07-02T11:57:53;98366.81;;;21.81;61.53
45621;BME280;31345;51.522;10.702;2023-07-02T12:00:21;98369.50;;;21.81;59.36
45621;BME280;31345;51.522;10.702;2023-07-02T12:02:48;98374.00;;;22.09;58.35
45621;BME280;31345;51.522;10.702;2023-07-02T12:05:21;98388.13;;;22.38;60.51
45621;BME280;31345;51.522;10.702;2023-07-02T12:07:53;98375.56;;;22.32;59.07
45621;BME280;31345;51.522;10.702;2023-07-02T12:10:30;98384.75;;;21.72;53.93
45621;BME280;31345;51.522;10.702;2023-07-02T12:12:57;98377.16;;;21.91;56.21
45621;BME280;31345;51.522;10.702;2023-07-02T12:15:25;98392.16;;;22.27;59.05
45621;BME280;31345;51.522;10.702;2023-07-02T12:17:57;98395.19;;;22.53;57.78
45621;BME280;31345;51.522;10.702;2023-07-02T12:20:25;98393.84;;;22.70;58.98
45621;BME280;31345;51.522;10.702;2023-07-02T12:22:57;98375.50;;;22.89;56.77
45621;BME280;31345;51.522;10.702;2023-07-02T12:25:31;98388.81;;;22.89;58.22
45621;BME280;31345;51.522;10.702;2023-07-02T12:28:01;98381.19;;;22.79;54.68
45621;BME280;31345;51.522;10.702;2023-07-02T12:30:34;98393.22;;;22.68;58.52
45621;BME280;31345;51.522;10.702;2023-07-02T12:33:06;98388.94;;;22.74;57.24
45621;BME280;31345;51.522;10.702;2023-07-02T12:35:39;98391.75;;;23.08;54.84
45621;BME280;31345;51.522;10.702;2023-07-02T12:38:12;98384.38;;;22.61;52.85
45621;BME280;31345;51.522;10.702;2023-07-02T12:40:46;98391.09;;;22.21;54.67
45621;BME280;31345;51.522;10.702;2023-07-02T12:43:19;98392.88;;;21.92;55.58
45621;BME280;31345;51.522;10.702;2023-07-02T12:45:48;98401.97;;;21.76;59.09
45621;BME280;31345;51.522;10.702;2023-07-02T12:48:20;98384.88;;;22.14;52.44
45621;BME280;31345;51.522;10.702;2023-07-02T12:50:53;98394.47;;;21.86;55.97
45621;BME280;31345;51.522;10.702;2023-07-02T12:53:21;98402.81;;;21.40;56.06
45621;BME280;31345;51.522;10.702;2023-07-02T12:55:55;98416.50;;;20.84;54.55
45621;BME280;31345;51.522;10.702;2023-07-02T12:58:23;98416.53;;;20.46;57.72
45621;BME280;31345;51.522;10.702;2023-07-02T13:00:55;98425.16;;;20.48;57.12
45621;BME280;31345;51.522;10.702;2023-07-02T13:03:23;98424.09;;;20.88;55.86
45621;BME280;31345;51.522;10.702;2023-07-02T13:05:56;98430.06;;;20.75;55.45